Time;durP1;ratioP1;P1;durP2;ratioP2;P2;SDS_P1;SDS_P2;PMS_P1;PMS_P2;Temp;Humidity;BMP_temperature;BMP_pressure;BME280_temperature;BME280_humidity;BME280_pressure;Samples;Min_cycle;Max_cycle;Signal;HPM_P1;HPM_P2
2022/06/19 00:02:15;;;;;;;13.15;3.65;;;;;;;19.84;67.39;96376.63;10352012;28;20272;-50
2022/06/19 00:07:16;;;;;;;16.02;4.25;;;;;;;19.83;66.89;96362.53;10369048;28;20229;-50
2022/06/19 00:12:18;;;;;;;15.20;3.63;;;;;;;20.04;66.21;96355.09;10352090;28;20217;-50
2022/06/19 00:17:18;;;;;;;23.30;3.35;;;;;;;20.10;65.75;96347.03;10369240;28;20331;-49
2022/06/19 00:22:18;;;;;;;16.55;4.18;;;;;;;20.01;66.12;96347.56;10369291;28;20304;-57
2022/06/19 00:27:19;;;;;;;21.27;4.00;;;;;;;20.07;65.79;96347.47;10370151;28;20782;-50
2022/06/19 00:32:20;;;;;;;18.58;3.60;;;;;;;20.11;65.48;96345.19;10376829;28;20320;-50
2022/06/19 00:37:20;;;;;;;21.70;3.67;;;;;;;19.98;65.85;96348.03;10376528;28;20604;-50
2022/06/19 00:42:24;;;;;;;14.15;3.45;;;;;;;19.82;66.63;96352.94;10376101;28;20263;-50
2022/06/19 00:47:29;;;;;;;13.18;3.25;;;;;;;19.73;66.92;96352.38;10376852;28;20213;-57
2022/06/19 00:52:33;;;;;;;12.23;3.30;;;;;;;19.76;66.78;96338.66;10375645;28;20721;-57
2022/06/19 00:57:37;;;;;;;18.40;3.50;;;;;;;19.66;67.35;96340.22;10358323;28;20272;-54
2022/06/19 01:02:38;;;;;;;15.95;3.92;;;;;;;19.59;67.59;96329.69;10374805;28;20723;-55
2022/06/19 01:07:40;;;;;;;15.35;3.40;;;;;;;19.69;67.02;96313.19;10374851;28;20348;-55
2022/06/19 01:12:42;;;;;;;14.88;3.42;;;;;;;19.68;66.95;96315.06;10375166;28;20221;-52
2022/06/19 01:17:44;;;;;;;18.35;3.30;;;;;;;19.63;66.91;96298.94;10374954;28;20188;-50
2022/06/19 01:22:57;;;;;;;10.75;2.75;;;;;;;19.66;66.88;96287.88;10374662;28;20216;-53
2022/06/19 01:33:32;;;;;;;15.70;3.70;;;;;;;19.77;66.16;96262.44;10374298;28;20209;-57
2022/06/19 01:38:33;;;;;;;24.90;4.03;;;;;;;19.84;65.79;96249.03;10373654;28;20193;-53
2022/06/19 01:43:34;;;;;;;23.92;4.00;;;;;;;19.85;65.68;96240.84;10374174;28;20220;-54
2022/06/19 01:48:35;;;;;;;22.55;4.38;;;;;;;19.89;65.57;96235.88;10356022;28;20714;-51
2022/06/19 01:53:52;;;;;;;16.83;3.67;;;;;;;19.96;64.93;96224.09;10373717;28;20291;-55
2022/06/19 01:58:56;;;;;;;19.88;3.83;;;;;;;19.84;65.58;96231.22;10355808;28;20204;-55
2022/06/19 02:03:57;;;;;;;13.00;3.50;;;;;;;19.76;65.58;96234.19;10355883;28;20711;-55
2022/06/19 02:09:02;;;;;;;18.15;4.45;;;;;;;19.75;65.83;96237.88;10354866;28;20339;-58
2022/06/19 02:14:04;;;;;;;20.80;3.53;;;;;;;19.58;66.47;96237.72;10372743;28;20220;-53
2022/06/19 02:19:05;;;;;;;14.38;3.33;;;;;;;19.36;67.33;96232.88;10372688;28;20200;-52
2022/06/19 02:24:07;;;;;;;8.43;3.03;;;;;;;19.22;68.17;96239.41;10372176;28;20600;-56
2022/06/19 02:29:09;;;;;;;12.27;3.22;;;;;;;19.01;69.24;96238.00;10354953;28;20232;-56
2022/06/19 02:34:17;;;;;;;25.13;4.43;;;;;;;18.86;69.89;96233.06;10371836;28;20213;-53
2022/06/19 02:39:34;;;;;;;13.68;3.95;;;;;;;18.79;70.08;96219.00;10354364;28;20182;-56
2022/06/19 02:44:37;;;;;;;20.17;3.53;;;;;;;18.71;70.60;96215.63;10371478;28;20500;-57
2022/06/19 02:49:38;;;;;;;16.67;3.58;;;;;;;18.76;70.44;96220.28;10353349;28;20217;-57
2022/06/19 02:54:38;;;;;;;21.38;3.72;;;;;;;19.03;69.28;96212.84;10371107;28;20320;-56
2022/06/19 02:59:40;;;;;;;17.27;3.90;;;;;;;19.43;67.37;96182.31;10371118;28;20196;-55
2022/06/19 03:04:56;;;;;;;14.60;3.72;;;;;;;19.51;67.36;96189.16;10370433;28;20244;-54
2022/06/19 03:09:57;;;;;;;17.38;4.13;;;;;;;19.61;67.23;96181.44;10370964;28;20231;-57
2022/06/19 03:14:57;;;;;;;13.35;4.18;;;;;;;19.70;66.83;96158.03;10370552;28;20212;-50
2022/06/19 03:19:58;;;;;;;18.63;3.75;;;;;;;19.64;67.26;96151.78;10370132;28;20193;-51
2022/06/19 03:24:58;;;;;;;16.40;4.00;;;;;;;19.43;68.32;96155.75;10369673;28;20241;-55
2022/06/19 03:29:58;;;;;;;16.77;4.30;;;;;;;19.45;69.07;96164.31;10369784;28;20240;-54
2022/06/19 03:34:59;;;;;;;20.50;3.65;;;;;;;19.58;69.00;96158.00;10369558;28;20299;-52
2022/06/19 03:39:59;;;;;;;12.13;3.20;;;;;;;19.80;68.42;96153.00;10370232;28;20200;-51
2022/06/19 03:44:59;;;;;;;13.18;3.35;;;;;;;20.07;67.59;96133.94;10369941;28;20217;-50
2022/06/19 03:50:01;;;;;;;15.40;4.20;;;;;;;20.20;67.64;96123.09;10369774;28;20600;-54
2022/06/19 03:55:02;;;;;;;18.80;3.47;;;;;;;20.44;66.78;96107.91;10369678;28;20241;-52
2022/06/19 04:00:03;;;;;;;16.58;3.90;;;;;;;20.88;64.42;96080.84;10351733;28;20672;-52
2022/06/19 04:05:13;;;;;;;11.70;3.03;;;;;;;21.10;63.96;96073.00;10376764;28;20240;-54
2022/06/19 04:10:15;;;;;;;14.95;3.83;;;;;;;21.18;63.82;96059.28;10377668;28;20223;-52
2022/06/19 04:15:16;;;;;;;19.60;4.20;;;;;;;21.19;64.27;96074.22;10377284;28;20225;-51
2022/06/19 04:20:16;;;;;;;27.85;4.35;;;;;;;21.43;64.30;96063.44;10377303;28;20527;-51
2022/06/19 04:25:16;;;;;;;17.90;3.83;;;;;;;21.70;62.39;96023.63;10375710;28;20216;-52
2022/06/19 04:30:17;;;;;;;12.52;3.53;;;;;;;22.08;61.86;96023.88;10376790;28;20263;-59
2022/06/19 04:35:18;;;;;;;13.70;3.65;;;;;;;22.53;59.80;95987.38;10376534;28;20755;-53
2022/06/19 04:40:18;;;;;;;25.33;3.90;;;;;;;22.96;57.89;95964.28;10376540;28;20271;-51
2022/06/19 04:45:19;;;;;;;17.50;3.83;;;;;;;23.23;56.80;95958.09;10376201;28;20217;-54
2022/06/19 04:50:19;;;;;;;12.23;3.53;;;;;;;23.54;56.09;95942.28;10377407;28;20225;-50
2022/06/19 04:55:21;;;;;;;11.60;3.53;;;;;;;23.63;56.11;95946.91;10375803;28;20241;-51
2022/06/19 05:00:21;;;;;;;16.90;3.13;;;;;;;23.61;56.84;95964.25;10375573;28;20185;-50
2022/06/19 05:05:22;;;;;;;13.60;3.58;;;;;;;23.49;57.37;95975.97;10375099;28;20217;-51
2022/06/19 05:10:23;;;;;;;11.65;3.38;;;;;;;23.44;57.91;95986.59;10375268;28;20224;-50
2022/06/19 05:15:23;;;;;;;8.85;2.85;;;;;;;23.37;58.43;95978.00;10374129;28;20224;-50
2022/06/19 05:20:23;;;;;;;14.73;3.75;;;;;;;23.43;58.73;95976.97;10375170;28;20197;-50
2022/06/19 05:25:24;;;;;;;16.48;3.60;;;;;;;23.59;58.24;95969.06;10374350;28;20205;-51
2022/06/19 05:30:24;;;;;;;10.88;3.63;;;;;;;23.69;58.12;95934.34;10374706;28;20236;-53
2022/06/19 05:35:25;;;;;;;11.77;3.22;;;;;;;24.03;56.33;95913.41;10374220;28;20217;-51
2022/06/19 05:40:25;;;;;;;13.02;3.58;;;;;;;24.30;55.38;95900.91;10374232;28;20667;-54
2022/06/19 05:45:25;;;;;;;9.82;3.50;;;;;;;24.52;55.19;95893.47;10374071;28;20224;-53
2022/06/19 05:50:26;;;;;;;10.32;3.08;;;;;;;24.84;54.10;95862.16;10374142;28;20251;-57
2022/06/19 05:55:26;;;;;;;6.25;2.65;;;;;;;25.22;52.34;95825.94;10373683;28;20255;-56
2022/06/19 06:00:27;;;;;;;15.43;3.33;;;;;;;25.69;51.26;95821.25;10373375;28;20182;-55
2022/06/19 06:05:27;;;;;;;10.07;3.35;;;;;;;26.09;49.50;95783.75;10343881;28;20244;-57
2022/06/19 06:10:27;;;;;;;8.23;2.88;;;;;;;26.53;47.28;95756.03;10332379;28;20222;-53
2022/06/19 06:15:28;;;;;;;14.37;2.20;;;;;;;26.99;46.34;95727.94;10333275;28;20256;-55
2022/06/19 06:20:30;;;;;;;6.22;2.00;;;;;;;27.35;44.90;95714.09;10357886;28;20443;-54
2022/06/19 06:25:30;;;;;;;10.80;2.50;;;;;;;27.54;43.53;95671.09;10349818;28;20217;-54
2022/06/19 06:30:30;;;;;;;14.68;2.90;;;;;;;27.84;44.25;95685.16;10350229;28;20221;-55
2022/06/19 06:35:31;;;;;;;14.48;2.38;;;;;;;28.02;42.93;95662.84;10350392;28;20213;-54
2022/06/19 06:40:32;;;;;;;11.32;2.72;;;;;;;28.13;42.17;95643.81;10359406;28;20213;-52
2022/06/19 06:45:33;;;;;;;9.30;2.70;;;;;;;28.33;40.84;95605.78;10371565;28;20726;-54
2022/06/19 06:50:33;;;;;;;13.88;2.80;;;;;;;28.48;40.62;95618.16;10371367;28;20221;-56
2022/06/19 06:55:42;;;;;;;6.57;2.38;;;;;;;28.64;39.88;95616.78;10371250;28;20349;-51
2022/06/19 07:00:42;;;;;;;9.10;2.78;;;;;;;28.62;40.13;95602.00;10371092;28;20611;-58
2022/06/19 07:05:43;;;;;;;11.02;3.03;;;;;;;28.51;40.40;95627.53;10370407;28;20225;-55
2022/06/19 07:10:43;;;;;;;11.23;2.73;;;;;;;28.67;40.54;95620.78;10375108;28;20228;-57
2022/06/19 07:15:43;;;;;;;12.73;2.30;;;;;;;29.02;39.17;95626.56;10382892;28;20483;-53
2022/06/19 07:20:44;;;;;;;14.05;2.47;;;;;;;28.79;39.38;95599.53;10381874;28;20451;-55
2022/06/19 07:25:45;;;;;;;15.10;2.85;;;;;;;28.72;39.87;95620.69;10371993;28;20572;-53
2022/06/19 07:30:46;;;;;;;14.48;2.83;;;;;;;28.91;39.42;95576.63;10370483;28;20783;-51
2022/06/19 07:35:46;;;;;;;6.32;2.38;;;;;;;28.68;39.48;95627.75;10369702;28;20639;-56
2022/06/19 07:40:46;;;;;;;13.48;2.90;;;;;;;28.77;39.72;95620.56;10369898;28;20188;-52
2022/06/19 07:45:47;;;;;;;12.80;3.00;;;;;;;28.55;40.51;95637.41;10370071;28;20232;-52
2022/06/19 07:50:48;;;;;;;16.20;1.90;;;;;;;28.69;39.92;95636.66;10369771;28;20475;-54
2022/06/19 07:55:48;;;;;;;13.23;2.90;;;;;;;28.81;40.18;95632.34;10369955;28;20248;-56
2022/06/19 08:00:49;;;;;;;11.27;2.80;;;;;;;28.71;40.10;95632.56;10401811;23;20339;-60
2022/06/19 08:05:49;;;;;;;39.38;4.45;;;;;;;28.93;40.27;95639.94;10453241;28;20208;-62
2022/06/19 08:10:51;;;;;;;14.30;2.37;;;;;;;28.79;40.28;95660.69;10446266;28;20216;-59
2022/06/19 08:15:56;;;;;;;11.32;3.50;;;;;;;29.32;40.54;95672.88;10451365;28;20522;-64
2022/06/19 08:20:56;;;;;;;12.52;3.42;;;;;;;29.21;40.82;95687.72;10451604;28;20242;-65
2022/06/19 08:25:58;;;;;;;8.77;3.07;;;;;;;29.03;40.51;95671.28;10450816;28;20196;-61
2022/06/19 08:30:58;;;;;;;18.30;3.00;;;;;;;28.94;41.07;95670.41;10451331;28;20446;-65
2022/06/19 08:36:05;;;;;;;15.27;3.85;;;;;;;29.32;41.39;95676.38;10450775;28;20196;-65
2022/06/19 08:41:17;;;;;;;15.95;2.85;;;;;;;29.13;40.97;95668.41;10433181;28;20690;-61
2022/06/19 08:46:41;;;;;;;15.52;3.70;;;;;;;29.08;41.55;95690.09;10444384;28;20245;-63
2022/06/19 08:51:53;;;;;;;25.45;3.67;;;;;;;29.25;42.22;95719.19;10414101;28;20220;-62
2022/06/19 08:57:22;;;;;;;18.90;3.30;;;;;;;29.16;41.87;95710.94;10398936;28;20652;-63
2022/06/19 09:02:31;;;;;;;17.52;4.00;;;;;;;29.41;42.25;95708.84;10399021;28;20267;-65
2022/06/19 09:07:45;;;;;;;10.23;3.25;;;;;;;29.33;41.61;95701.47;10398120;28;20236;-64
2022/06/19 09:12:59;;;;;;;15.75;3.90;;;;;;;29.59;41.86;95730.59;10416292;28;20547;-64
2022/06/19 09:18:39;;;;;;;18.90;3.95;;;;;;;29.91;41.72;95737.78;10398119;28;20189;-65
2022/06/19 09:24:01;;;;;;;17.83;4.38;;;;;;;29.99;40.76;95712.72;10415878;28;20292;-61
2022/06/19 09:29:02;;;;;;;10.32;3.72;;;;;;;30.57;40.38;95746.22;10397820;28;20224;-63
2022/06/19 09:34:51;;;;;;;20.30;4.00;;;;;;;30.35;41.93;95740.78;10415723;28;20219;-64
2022/06/19 09:39:58;;;;;;;13.65;3.95;;;;;;;30.56;40.58;95714.88;10398245;28;20213;-64
2022/06/19 09:45:01;;;;;;;10.57;3.40;;;;;;;30.68;39.94;95684.56;10396933;28;20212;-65
2022/06/19 09:50:08;;;;;;;19.17;3.53;;;;;;;30.44;40.57;95695.72;10426665;28;20592;-64
2022/06/19 09:55:29;;;;;;;8.50;2.75;;;;;;;30.36;39.94;95699.16;10431777;28;20659;-64
2022/06/19 10:00:33;;;;;;;12.75;2.75;;;;;;;30.70;40.26;95687.75;10415627;28;20661;-65
2022/06/19 10:05:51;;;;;;;9.70;3.00;;;;;;;31.11;39.59;95678.53;10440824;28;20222;-64
2022/06/19 10:11:09;;;;;;;10.65;3.50;;;;;;;31.43;38.74;95654.88;10430009;28;20230;-65
2022/06/19 10:16:19;;;;;;;12.73;3.70;;;;;;;31.93;36.45;95593.25;10426708;28;20271;-65
2022/06/19 10:27:00;;;;;;;14.07;3.75;;;;;;;31.64;36.92;95582.00;10398157;28;20228;-62
2022/06/19 10:32:13;;;;;;;26.83;3.72;;;;;;;31.77;35.57;95557.75;10395758;28;20718;-64
2022/06/19 10:37:22;;;;;;;17.30;4.00;;;;;;;31.86;35.76;95574.78;10395319;28;20200;-63
2022/06/19 10:42:56;;;;;;;14.32;4.07;;;;;;;31.73;35.97;95554.09;10395239;28;20793;-63
2022/06/19 10:48:17;;;;;;;17.02;3.20;;;;;;;32.16;34.62;95543.19;10393919;28;20220;-63
2022/06/19 10:53:33;;;;;;;19.90;4.22;;;;;;;32.58;35.05;95568.84;10393752;28;20626;-64
2022/06/19 10:58:34;;;;;;;22.35;4.32;;;;;;;32.89;33.90;95512.34;10411241;28;20223;-64
2022/06/19 11:09:16;;;;;;;17.98;3.55;;;;;;;33.03;34.08;95517.53;10394202;28;20220;-63
2022/06/19 11:14:25;;;;;;;13.95;3.38;;;;;;;32.98;33.21;95479.72;10392526;28;20255;-63
2022/06/19 11:19:42;;;;;;;21.63;3.72;;;;;;;33.24;33.27;95500.47;10411122;28;20571;-64
2022/06/19 11:24:42;;;;;;;16.75;4.05;;;;;;;32.95;32.74;95466.03;10410742;28;20242;-63
2022/06/19 11:29:45;;;;;;;21.43;4.40;;;;;;;32.43;32.88;95434.63;10410910;28;20282;-63
2022/06/19 11:34:59;;;;;;;17.58;3.42;;;;;;;33.46;31.93;95433.34;10395548;28;20467;-63
2022/06/19 11:39:59;;;;;;;20.80;3.65;;;;;;;33.88;31.11;95411.50;10427930;28;20176;-62
2022/06/19 11:45:10;;;;;;;17.85;3.35;;;;;;;33.60;31.90;95420.25;10427990;28;20219;-63
2022/06/19 11:50:15;;;;;;;14.48;3.17;;;;;;;33.56;31.12;95395.69;10409047;28;20286;-63
2022/06/19 11:55:22;;;;;;;17.05;3.30;;;;;;;33.82;30.94;95382.97;10426841;28;20607;-63
2022/06/19 12:00:34;;;;;;;16.17;3.67;;;;;;;33.48;31.77;95371.34;10437720;28;20323;-64
2022/06/19 12:05:39;;;;;;;17.30;3.90;;;;;;;34.42;31.65;95415.91;10450612;28;20194;-64
2022/06/19 12:10:40;;;;;;;13.68;3.78;;;;;;;33.66;30.78;95347.47;10432701;28;20231;-64
2022/06/19 12:15:52;;;;;;;22.10;3.90;;;;;;;34.70;29.80;95338.97;10450532;28;20192;-65
2022/06/19 12:21:02;;;;;;;19.73;3.60;;;;;;;34.18;30.05;95306.00;10450408;28;20283;-63
2022/06/19 12:26:07;;;;;;;18.10;3.78;;;;;;;34.98;29.80;95341.72;10451290;28;20600;-64
2022/06/19 12:31:17;;;;;;;22.95;3.47;;;;;;;35.41;27.96;95279.41;10399669;28;20726;-64
2022/06/19 12:36:23;;;;;;;15.07;3.80;;;;;;;34.46;28.09;95231.88;10416661;28;20220;-63
2022/06/19 12:41:34;;;;;;;23.05;4.07;;;;;;;35.08;27.02;95234.25;10399018;28;20212;-64
2022/06/19 12:46:46;;;;;;;18.67;4.57;;;;;;;34.92;27.64;95226.88;10415993;28;20699;-63
2022/06/19 12:51:51;;;;;;;25.67;4.68;;;;;;;35.50;26.84;95242.69;10398771;28;20208;-63
2022/06/19 12:57:06;;;;;;;26.85;4.72;;;;;;;36.68;26.38;95272.81;10398808;28;20184;-63
2022/06/19 13:02:12;;;;;;;27.83;4.38;;;;;;;36.42;26.62;95255.19;10415832;28;20252;-64
2022/06/19 13:07:28;;;;;;;19.13;4.28;;;;;;;36.00;27.18;95236.78;10397271;28;20274;-64
2022/06/19 13:12:51;;;;;;;26.55;4.47;;;;;;;36.21;27.47;95269.94;10415807;28;20605;-64
2022/06/19 13:17:57;;;;;;;24.77;4.18;;;;;;;35.76;27.06;95224.97;10415588;28;20654;-64
2022/06/19 13:23:18;;;;;;;29.98;4.80;;;;;;;36.86;26.42;95273.97;10397941;28;20247;-64
2022/06/19 13:28:28;;;;;;;23.77;4.00;;;;;;;37.20;26.41;95257.78;10422961;28;20224;-63
2022/06/19 13:33:49;;;;;;;17.98;4.20;;;;;;;37.16;25.75;95209.72;10414606;28;20606;-63
2022/06/19 13:39:17;;;;;;;21.95;4.63;;;;;;;36.69;26.38;95242.44;10414887;28;20198;-63
2022/06/19 13:44:35;;;;;;;25.67;4.55;;;;;;;38.48;24.27;95238.13;10400798;28;20212;-63
2022/06/19 13:49:46;;;;;;;25.25;4.97;;;;;;;37.63;24.27;95176.50;10397106;28;20219;-63
2022/06/19 13:54:55;;;;;;;29.50;4.68;;;;;;;41.06;22.52;95248.44;10414264;28;20262;-63
2022/06/19 14:00:08;;;;;;;29.63;5.15;;;;;;;40.06;22.64;95188.53;10419488;28;20666;-64
2022/06/19 14:05:28;;;;;;;24.90;5.50;;;;;;;39.36;23.98;95213.16;10476499;23;20337;-59
2022/06/19 14:10:46;;;;;;;24.88;4.90;;;;;;;39.73;23.80;95245.94;10478564;28;20689;-59
2022/06/19 14:16:02;;;;;;;30.70;5.25;;;;;;;38.27;25.32;95214.06;10495918;28;20210;-60
2022/06/19 14:21:16;;;;;;;22.83;5.03;;;;;;;37.41;25.52;95189.06;10478454;28;20281;-57
2022/06/19 14:26:54;;;;;;;23.02;5.40;;;;;;;36.80;26.89;95196.25;10477822;28;20225;-60
2022/06/19 14:31:55;;;;;;;23.98;4.78;;;;;;;37.17;27.64;95252.25;10495748;28;20193;-60
2022/06/19 14:36:55;;;;;;;22.83;4.35;;;;;;;39.98;25.10;95307.59;10477132;28;20352;-58
2022/06/19 14:41:57;;;;;;;25.93;4.30;;;;;;;42.65;24.06;95367.34;10477731;28;20224;-57
2022/06/19 14:47:06;;;;;;;20.75;4.68;;;;;;;43.01;22.87;95319.59;10493676;28;20520;-61
2022/06/19 14:52:13;;;;;;;21.77;4.63;;;;;;;40.75;25.17;95327.59;10477713;28;20217;-59
2022/06/19 14:57:22;;;;;;;16.50;4.63;;;;;;;42.06;24.27;95343.09;10494300;28;20213;-60
2022/06/19 15:02:26;;;;;;;24.50;5.10;;;;;;;42.56;23.69;95344.94;10476488;28;20210;-60
2022/06/19 15:07:27;;;;;;;17.77;4.80;;;;;;;40.50;25.31;95278.09;10476043;28;20712;-60
2022/06/19 15:12:29;;;;;;;18.17;4.28;;;;;;;42.39;24.21;95338.31;10494203;28;20190;-60
2022/06/19 15:17:39;;;;;;;20.58;5.35;;;;;;;40.18;25.58;95267.75;10458710;28;20211;-60
2022/06/19 15:22:40;;;;;;;20.80;5.82;;;;;;;41.85;24.31;95336.44;10452238;28;20197;-60
2022/06/19 15:27:40;;;;;;;26.02;5.38;;;;;;;40.25;25.12;95265.03;10452462;28;20560;-58
2022/06/19 15:32:59;;;;;;;18.87;5.20;;;;;;;39.52;26.32;95268.47;10460121;28;20226;-59
2022/06/19 15:38:26;;;;;;;24.13;4.75;;;;;;;39.53;26.55;95277.50;10452145;28;20426;-56
2022/06/19 15:43:33;;;;;;;26.75;5.35;;;;;;;40.44;25.65;95285.13;10444945;28;20218;-55
2022/06/19 15:48:38;;;;;;;19.38;4.65;;;;;;;41.59;24.71;95304.59;10452218;28;20219;-55
2022/06/19 15:53:53;;;;;;;32.90;5.70;;;;;;;37.92;27.86;95233.50;10433940;28;20222;-59
2022/06/19 15:58:59;;;;;;;20.05;5.07;;;;;;;37.43;28.47;95276.13;10437495;28;20186;-60
2022/06/19 16:04:11;;;;;;;26.58;5.38;;;;;;;38.07;28.26;95319.25;10441716;28;20234;-57
2022/06/19 16:09:15;;;;;;;23.13;5.20;;;;;;;36.40;30.14;95287.47;10441943;28;20219;-57
2022/06/19 16:14:22;;;;;;;22.33;5.82;;;;;;;36.13;30.66;95300.94;10459236;28;20587;-54
2022/06/19 16:19:25;;;;;;;23.73;5.20;;;;;;;36.63;33.58;95462.19;10459306;28;20191;-59
2022/06/19 16:24:29;;;;;;;20.35;4.82;;;;;;;36.51;34.74;95489.56;10459248;28;20243;-58
2022/06/19 16:29:30;;;;;;;22.85;4.85;;;;;;;36.72;34.58;95502.91;10440750;28;20215;-60
2022/06/19 16:44:02;;;;;;;22.35;4.95;;;;;;;36.34;34.89;95483.38;10458878;28;20704;-61
2022/06/19 16:45:24;;;;;;;17.15;4.30;;;;;;;34.95;36.87;95495.63;10458551;28;20211;-61
2022/06/19 16:50:24;;;;;;;14.43;4.70;;;;;;;35.09;37.09;95518.94;10492504;28;20804;-60
2022/06/19 16:55:28;;;;;;;21.10;4.80;;;;;;;34.42;38.90;95549.94;10499584;28;20214;-59
2022/06/19 17:00:33;;;;;;;18.27;4.45;;;;;;;34.67;38.39;95547.19;10481442;28;20229;-60
2022/06/19 17:05:36;;;;;;;21.73;4.78;;;;;;;34.20;39.22;95559.28;10460156;28;20661;-58
2022/06/19 17:10:39;;;;;;;18.00;4.45;;;;;;;34.23;39.52;95566.78;10455568;28;20699;-61
2022/06/19 17:15:56;;;;;;;13.55;4.60;;;;;;;34.15;39.79;95594.03;10439359;28;20218;-60
2022/06/19 17:21:11;;;;;;;16.83;4.20;;;;;;;33.90;41.15;95602.91;10489132;28;20240;-60
2022/06/19 17:26:14;;;;;;;18.38;4.38;;;;;;;33.74;41.73;95616.34;10497441;28;20264;-60
2022/06/19 17:31:20;;;;;;;17.38;4.35;;;;;;;33.77;41.94;95618.41;10498441;28;20195;-60
2022/06/19 17:36:47;;;;;;;20.75;4.57;;;;;;;32.91;44.06;95644.16;10496885;28;20202;-60
2022/06/19 17:41:47;;;;;;;16.33;4.43;;;;;;;32.82;43.58;95646.91;10493318;28;20574;-57
2022/06/19 17:46:55;;;;;;;14.00;4.85;;;;;;;32.56;44.98;95676.81;10497281;28;20214;-60
2022/06/19 17:52:12;;;;;;;15.23;4.45;;;;;;;32.07;46.00;95715.78;10479321;28;20235;-60
2022/06/19 17:57:31;;;;;;;22.55;4.97;;;;;;;31.37;47.45;95747.38;10497072;28;20211;-59
2022/06/19 18:02:31;;;;;;;31.80;5.15;;;;;;;30.71;47.96;95748.03;10497376;28;20268;-60
2022/06/19 18:07:35;;;;;;;17.30;4.70;;;;;;;30.35;48.90;95774.03;10496280;28;20337;-58
2022/06/19 18:12:39;;;;;;;14.63;4.55;;;;;;;30.08;50.07;95795.72;10478963;28;20438;-60
2022/06/19 18:22:59;;;;;;;12.27;4.38;;;;;;;29.84;49.76;95808.38;10496164;28;20219;-59
2022/06/19 18:28:02;;;;;;;15.13;4.22;;;;;;;29.27;50.95;95834.88;10495858;28;20223;-56
2022/06/19 18:33:02;;;;;;;15.18;4.63;;;;;;;28.99;50.74;95830.19;10495563;28;20212;-59
2022/06/19 18:38:04;;;;;;;16.90;5.00;;;;;;;28.79;50.60;95814.34;10495399;28;20299;-59
2022/06/19 18:43:05;;;;;;;19.00;4.55;;;;;;;28.23;51.48;95846.44;10495028;28;20203;-57
2022/06/19 18:48:06;;;;;;;14.52;4.45;;;;;;;27.95;52.34;95856.25;10495243;28;20301;-54
2022/06/19 18:53:19;;;;;;;11.10;4.28;;;;;;;27.90;51.80;95853.59;10494393;28;20218;-57
2022/06/19 18:58:22;;;;;;;16.05;5.07;;;;;;;27.50;53.15;95890.66;10494647;28;20642;-57
2022/06/19 19:03:24;;;;;;;19.15;5.70;;;;;;;27.35;53.12;95884.38;10494581;28;20270;-53
2022/06/19 19:08:33;;;;;;;19.42;5.20;;;;;;;27.07;54.42;95912.03;10494033;28;20571;-57
2022/06/19 19:13:37;;;;;;;23.88;6.35;;;;;;;26.73;55.33;95935.13;10476608;28;20212;-55
2022/06/19 19:18:38;;;;;;;20.05;9.75;;;;;;;26.45;55.08;95926.66;10493993;28;20192;-58
2022/06/19 19:23:38;;;;;;;28.58;11.20;;;;;;;26.40;54.32;95918.66;10493867;28;20215;-55
2022/06/19 19:28:43;;;;;;;29.73;12.48;;;;;;;25.87;55.31;95932.53;10493799;28;20211;-58
2022/06/19 19:33:48;;;;;;;31.05;11.88;;;;;;;25.71;55.40;95939.84;10475397;28;20265;-57
2022/06/19 19:38:49;;;;;;;28.45;11.23;;;;;;;25.57;55.24;95947.63;10475634;28;20274;-58
2022/06/19 19:43:50;;;;;;;30.33;11.98;;;;;;;25.53;55.67;95980.63;10493350;28;20214;-59
2022/06/19 19:48:51;;;;;;;27.60;11.85;;;;;;;25.10;56.72;96016.53;10493399;28;20588;-58
2022/06/19 19:53:52;;;;;;;32.75;12.05;;;;;;;24.90;57.60;96011.13;10492498;28;20694;-57
2022/06/19 19:58:52;;;;;;;28.38;12.60;;;;;;;24.77;58.13;96033.88;10475592;28;20271;-59
2022/06/19 20:03:53;;;;;;;22.02;11.90;;;;;;;24.60;58.68;96039.47;10504656;23;20709;-55
2022/06/19 20:14:12;;;;;;;29.48;12.15;;;;;;;24.22;59.15;96050.22;10451613;28;20211;-55
2022/06/19 20:19:12;;;;;;;22.80;11.43;;;;;;;24.07;59.87;96062.72;10451534;28;20188;-58
2022/06/19 20:24:21;;;;;;;27.08;11.75;;;;;;;24.03;59.62;96062.44;10451667;28;20694;-59
2022/06/19 20:29:25;;;;;;;29.52;12.43;;;;;;;23.74;60.62;96073.47;10451247;28;20223;-60
2022/06/19 20:34:28;;;;;;;29.67;12.65;;;;;;;23.55;61.21;96083.72;10449825;28;20299;-54
2022/06/19 20:39:28;;;;;;;25.13;11.98;;;;;;;23.39;61.29;96087.34;10430803;28;20188;-55
2022/06/19 20:44:29;;;;;;;23.58;10.95;;;;;;;23.31;61.61;96085.94;10452629;28;20302;-58
2022/06/19 20:49:32;;;;;;;25.35;11.05;;;;;;;23.10;62.36;96088.41;10458631;28;20835;-59
2022/06/19 20:54:32;;;;;;;22.83;10.20;;;;;;;23.04;62.42;96077.88;10450024;28;20683;-55
2022/06/19 20:59:33;;;;;;;24.08;11.63;;;;;;;22.93;62.68;96080.44;10458123;28;20219;-57
2022/06/19 21:04:33;;;;;;;27.05;12.20;;;;;;;22.71;63.66;96077.81;10447529;28;20830;-53
2022/06/19 21:09:34;;;;;;;35.22;13.55;;;;;;;22.44;64.77;96093.75;10470743;28;20710;-58
2022/06/19 21:14:34;;;;;;;26.42;13.90;;;;;;;22.28;65.84;96092.69;10457340;28;20216;-59
2022/06/19 21:19:35;;;;;;;25.63;14.90;;;;;;;22.07;67.28;96091.63;10457311;28;20266;-59
2022/06/19 21:24:35;;;;;;;33.00;18.10;;;;;;;21.85;67.52;96083.56;10457038;28;20211;-53
2022/06/19 21:29:35;;;;;;;34.75;19.00;;;;;;;21.71;68.66;96097.22;10457129;28;20215;-54
2022/06/19 21:34:36;;;;;;;40.08;20.10;;;;;;;21.63;69.26;96102.16;10456856;28;20309;-56
2022/06/19 21:39:36;;;;;;;36.65;21.15;;;;;;;21.32;70.50;96096.28;10456884;28;20283;-54
2022/06/19 21:44:37;;;;;;;47.55;26.85;;;;;;;20.48;75.34;96103.72;10456310;28;20216;-55
2022/06/19 21:49:37;;;;;;;46.25;26.92;;;;;;;20.35;76.09;96097.84;10456380;28;20621;-54
2022/06/19 21:54:37;;;;;;;50.90;28.02;;;;;;;20.40;75.91;96100.59;10455381;28;20216;-52
2022/06/19 21:59:38;;;;;;;45.78;27.40;;;;;;;20.17;77.18;96098.78;10456024;28;20186;-51
2022/06/19 22:04:39;;;;;;;48.05;28.02;;;;;;;19.67;80.80;96095.50;10455804;28;20271;-57
2022/06/19 22:14:58;;;;;;;55.83;33.70;;;;;;;19.65;81.91;96094.09;10455528;28;20204;-50
2022/06/19 22:19:59;;;;;;;48.53;33.28;;;;;;;19.66;82.69;96098.41;10455090;28;20183;-54
2022/06/19 22:24:59;;;;;;;55.83;34.08;;;;;;;19.46;85.10;96107.47;10455188;28;20324;-50
2022/06/19 22:29:59;;;;;;;55.28;32.47;;;;;;;19.45;85.79;96103.22;10454783;28;20223;-50
2022/06/19 22:35:00;;;;;;;55.17;33.28;;;;;;;19.44;86.39;96098.94;10454701;28;20289;-55
2022/06/19 22:40:00;;;;;;;66.93;40.10;;;;;;;19.10;89.74;96097.81;10454482;28;20279;-50
2022/06/19 22:45:01;;;;;;;63.60;39.13;;;;;;;19.23;88.78;96090.47;10454053;28;20216;-50
2022/06/19 22:50:03;;;;;;;60.92;38.05;;;;;;;19.38;89.35;96087.38;10453823;28;20215;-52
2022/06/19 22:55:03;;;;;;;69.15;40.85;;;;;;;19.07;90.95;96083.13;10453292;28;21059;-52
2022/06/19 23:05:31;;;;;;;66.88;38.10;;;;;;;18.87;96.89;96060.31;10453182;28;20268;-50
2022/06/19 23:10:33;;;;;;;55.72;36.97;;;;;;;18.27;100.00;96049.59;10452643;28;20238;-50
2022/06/19 23:15:34;;;;;;;65.25;38.80;;;;;;;18.30;100.00;96062.41;10453129;28;20218;-53
2022/06/19 23:20:49;;;;;;;66.13;38.35;;;;;;;18.09;100.00;96051.25;10436115;28;20207;-57
2022/06/19 23:25:55;;;;;;;59.95;37.55;;;;;;;17.83;100.00;96063.69;10435272;28;20219;-57
2022/06/19 23:30:55;;;;;;;61.97;37.88;;;;;;;17.92;100.00;96055.50;10452380;28;20262;-55
2022/06/19 23:35:55;;;;;;;61.83;37.10;;;;;;;17.91;100.00;96059.97;10452640;28;20290;-56
2022/06/19 23:40:59;;;;;;;55.92;36.88;;;;;;;17.65;100.00;96055.72;10452236;28;20191;-55
2022/06/19 23:45:59;;;;;;;55.75;34.75;;;;;;;17.76;100.00;96056.84;10434487;28;20655;-57
2022/06/19 23:51:00;;;;;;;64.57;36.35;;;;;;;17.74;100.00;96053.59;10434191;28;20237;-56
2022/06/19 23:56:00;;;;;;;65.90;38.40;;;;;;;17.41;100.00;96058.16;10451980;28;20223;-51
